createdAt,value
2017-08-04T00:00:13.218Z,21.60
2017-08-04T00:02:42.276Z,21.40
2017-08-04T00:05:10.580Z,21.40
2017-08-04T00:07:39.678Z,21.30
2017-08-04T00:10:07.968Z,21.30
2017-08-04T00:12:36.261Z,21.30
2017-08-04T00:15:04.589Z,21.20
2017-08-04T00:17:32.879Z,21.20
2017-08-04T00:20:01.173Z,21.10
2017-08-04T00:22:29.509Z,21.10
2017-08-04T00:24:57.796Z,21.10
2017-08-04T00:27:26.086Z,21.00
2017-08-04T00:29:54.416Z,21.00
2017-08-04T00:32:22.860Z,21.00
2017-08-04T00:34:51.919Z,21.00
2017-08-04T00:37:20.266Z,20.90
2017-08-04T00:39:49.348Z,20.80
2017-08-04T00:42:17.634Z,20.80
2017-08-04T00:44:45.977Z,20.80
2017-08-04T00:47:14.272Z,20.80
2017-08-04T00:49:42.562Z,20.80
2017-08-04T00:52:10.890Z,20.70
2017-08-04T00:54:39.189Z,20.80
2017-08-04T00:57:07.477Z,20.70
2017-08-04T00:59:35.810Z,20.70
2017-08-04T01:02:04.875Z,20.70
2017-08-04T01:04:33.173Z,20.70
2017-08-04T01:07:01.508Z,20.60
2017-08-04T01:09:29.796Z,20.60
2017-08-04T01:11:58.124Z,20.60
2017-08-04T01:14:26.453Z,20.60
2017-08-04T01:16:54.753Z,20.60
2017-08-04T01:19:23.079Z,20.60
2017-08-04T01:21:51.408Z,20.60
2017-08-04T01:24:22.862Z,20.60
2017-08-04T01:26:51.199Z,20.60
2017-08-04T01:29:19.499Z,20.50
2017-08-04T01:31:47.793Z,20.50
2017-08-04T01:34:16.128Z,20.50
2017-08-04T01:36:45.198Z,20.40
2017-08-04T01:39:13.504Z,20.40
2017-08-04T01:41:41.828Z,20.40
2017-08-04T01:44:10.128Z,20.40
2017-08-04T01:46:38.457Z,20.40
2017-08-04T01:49:06.777Z,20.40
2017-08-04T01:51:35.065Z,20.30
2017-08-04T01:54:03.432Z,20.40
2017-08-04T01:56:31.721Z,20.30
2017-08-04T01:59:00.017Z,20.30
2017-08-04T02:01:28.338Z,20.30
2017-08-04T02:03:56.637Z,20.30
2017-08-04T02:06:24.953Z,20.30
2017-08-04T02:08:53.245Z,20.40
2017-08-04T02:11:21.561Z,20.40
2017-08-04T02:13:49.852Z,20.30
2017-08-04T02:16:18.175Z,20.30
2017-08-04T02:18:46.612Z,20.30
2017-08-04T02:21:15.663Z,20.40
2017-08-04T02:23:43.956Z,20.30
2017-08-04T02:26:12.272Z,20.30
2017-08-04T02:28:40.561Z,20.20
2017-08-04T02:31:09.648Z,20.30
2017-08-04T02:33:37.936Z,20.20
2017-08-04T02:36:06.309Z,20.30
2017-08-04T02:38:34.641Z,20.30
2017-08-04T02:41:02.948Z,20.30
2017-08-04T02:43:31.233Z,20.30
2017-08-04T02:45:59.566Z,20.30
2017-08-04T02:48:28.061Z,20.30
2017-08-04T02:50:56.357Z,20.30
2017-08-04T02:53:25.436Z,20.30
2017-08-04T02:55:53.764Z,20.30
2017-08-04T02:58:22.833Z,20.20
2017-08-04T03:00:51.166Z,20.20
2017-08-04T03:03:19.469Z,20.20
2017-08-04T03:05:47.760Z,20.20
2017-08-04T03:08:16.100Z,20.20
2017-08-04T03:10:45.168Z,20.20
2017-08-04T03:13:13.468Z,20.10
2017-08-04T03:15:41.898Z,20.10
2017-08-04T03:18:10.185Z,20.10
2017-08-04T03:20:38.504Z,20.10
2017-08-04T03:23:06.800Z,20.10
2017-08-04T03:25:35.125Z,20.00
2017-08-04T03:28:03.417Z,20.00
2017-08-04T03:30:31.706Z,20.00
2017-08-04T03:33:00.044Z,20.00
2017-08-04T03:35:28.325Z,20.00
2017-08-04T03:37:56.614Z,20.00
2017-08-04T03:40:25.781Z,20.10
2017-08-04T03:42:54.073Z,20.00
2017-08-04T03:45:22.365Z,20.10
2017-08-04T03:47:50.677Z,20.00
2017-08-04T03:50:19.002Z,20.10
2017-08-04T03:52:47.397Z,20.00
2017-08-04T03:55:15.680Z,20.00
2017-08-04T03:57:44.007Z,20.00
2017-08-04T04:00:12.323Z,20.00
2017-08-04T04:02:40.649Z,19.90
2017-08-04T04:05:08.936Z,19.90
2017-08-04T04:07:37.241Z,19.90
2017-08-04T04:10:05.579Z,19.90
2017-08-04T04:12:33.904Z,19.90
2017-08-04T04:15:02.197Z,19.90
2017-08-04T04:17:30.518Z,19.90
2017-08-04T04:19:58.816Z,19.90
2017-08-04T04:22:27.125Z,19.90
2017-08-04T04:24:55.418Z,19.90
2017-08-04T04:27:23.733Z,19.80
2017-08-04T04:29:52.027Z,19.80
2017-08-04T04:32:20.358Z,19.90
2017-08-04T04:34:48.645Z,19.90
2017-08-04T04:37:16.930Z,19.90
2017-08-04T04:39:45.248Z,20.00
2017-08-04T04:42:13.543Z,20.00
2017-08-04T04:44:41.828Z,20.00
2017-08-04T04:47:10.136Z,20.00
2017-08-04T04:49:38.455Z,20.10
2017-08-04T04:52:06.750Z,20.20
2017-08-04T04:54:35.057Z,20.20
2017-08-04T04:57:03.349Z,20.20
2017-08-04T04:59:31.675Z,20.20
2017-08-04T05:01:59.965Z,20.30
2017-08-04T05:04:28.302Z,20.40
2017-08-04T05:06:56.593Z,20.50
2017-08-04T05:09:24.877Z,20.60
2017-08-04T05:11:53.204Z,20.60
2017-08-04T05:14:21.489Z,20.70
2017-08-04T05:16:49.809Z,20.80
2017-08-04T05:19:18.096Z,20.80
2017-08-04T05:21:46.406Z,20.90
2017-08-04T05:24:14.725Z,21.00
2017-08-04T05:26:43.025Z,21.00
2017-08-04T05:29:11.392Z,21.10
2017-08-04T05:31:39.702Z,21.20
2017-08-04T05:34:08.800Z,21.40
2017-08-04T05:36:37.085Z,21.40
2017-08-04T05:39:05.401Z,21.40
2017-08-04T05:41:33.712Z,21.40
2017-08-04T05:44:02.018Z,21.50
2017-08-04T05:46:30.365Z,21.50
2017-08-04T05:48:59.420Z,21.70
2017-08-04T05:51:27.723Z,21.60
2017-08-04T05:53:56.050Z,21.70
2017-08-04T05:56:24.346Z,21.90
2017-08-04T05:58:53.815Z,21.90
2017-08-04T06:01:22.929Z,21.90
2017-08-04T06:03:51.223Z,21.90
2017-08-04T06:06:19.545Z,21.90
2017-08-04T06:08:48.630Z,21.80
2017-08-04T06:11:16.976Z,21.80
2017-08-04T06:13:45.277Z,21.80
2017-08-04T06:16:13.581Z,21.80
2017-08-04T06:18:41.895Z,21.70
2017-08-04T06:21:10.988Z,21.80
2017-08-04T06:23:39.322Z,21.80
2017-08-04T06:26:07.624Z,21.90
2017-08-04T06:28:35.966Z,22.00
2017-08-04T06:31:04.315Z,22.10
2017-08-04T06:33:32.602Z,22.20
2017-08-04T06:36:01.661Z,22.60
2017-08-04T06:38:29.970Z,22.60
2017-08-04T06:40:58.267Z,23.00
2017-08-04T06:43:26.609Z,23.00
2017-08-04T06:45:54.945Z,23.10
2017-08-04T06:48:41.104Z,23.10
2017-08-04T06:51:39.188Z,23.30
2017-08-04T06:54:25.156Z,23.60
2017-08-04T06:56:53.444Z,23.80
2017-08-04T06:59:21.728Z,23.80
2017-08-04T07:01:50.110Z,23.60
2017-08-04T07:04:20.232Z,23.60
2017-08-04T07:06:48.565Z,23.60
2017-08-04T07:09:16.866Z,23.50
2017-08-04T07:11:45.945Z,23.40
2017-08-04T07:14:14.265Z,23.40
2017-08-04T07:16:42.615Z,24.60
2017-08-04T07:19:10.944Z,26.30
2017-08-04T07:21:39.241Z,27.30
2017-08-04T07:24:07.577Z,27.20
2017-08-04T07:26:35.910Z,26.80
2017-08-04T07:29:04.209Z,26.50
2017-08-04T07:31:32.515Z,26.50
2017-08-04T07:34:00.863Z,27.00
2017-08-04T07:36:29.161Z,27.10
2017-08-04T07:38:58.270Z,26.40
2017-08-04T07:41:27.343Z,25.80
2017-08-04T07:43:55.672Z,25.70
2017-08-04T07:46:25.741Z,25.10
2017-08-04T07:48:54.847Z,25.80
2017-08-04T07:51:23.171Z,25.70
2017-08-04T07:53:51.486Z,27.30
2017-08-04T07:56:21.305Z,29.90
2017-08-04T07:58:49.684Z,29.80
2017-08-04T08:01:18.025Z,30.90
2017-08-04T08:03:46.487Z,31.10
2017-08-04T08:06:14.802Z,30.50
2017-08-04T08:08:43.090Z,29.70
2017-08-04T08:11:11.456Z,29.30
2017-08-04T08:13:39.749Z,29.40
2017-08-04T08:16:08.042Z,29.90
2017-08-04T08:18:36.359Z,30.20
2017-08-04T08:21:04.650Z,30.30
2017-08-04T08:23:33.967Z,31.00
2017-08-04T08:26:02.376Z,31.00
2017-08-04T08:28:30.729Z,31.10
2017-08-04T08:30:59.836Z,30.00
2017-08-04T08:33:28.165Z,30.00
2017-08-04T08:35:57.258Z,29.00
2017-08-04T08:38:25.580Z,29.00
2017-08-04T08:40:54.230Z,28.70
2017-08-04T08:43:22.527Z,28.40
2017-08-04T08:45:50.857Z,28.20
2017-08-04T08:48:19.155Z,28.20
2017-08-04T08:50:47.482Z,28.10
2017-08-04T08:53:15.806Z,28.30
2017-08-04T08:55:44.137Z,28.30
2017-08-04T08:58:13.621Z,27.80
2017-08-04T09:00:41.946Z,27.80
2017-08-04T09:03:10.272Z,27.50
2017-08-04T09:05:38.562Z,27.00
2017-08-04T09:08:06.892Z,26.70
2017-08-04T09:10:35.182Z,26.40
2017-08-04T09:13:03.503Z,26.10
2017-08-04T09:15:31.879Z,25.90
2017-08-04T09:18:00.213Z,25.70
2017-08-04T09:20:28.578Z,25.70
2017-08-04T09:22:56.932Z,25.40
2017-08-04T09:25:25.266Z,25.30
2017-08-04T09:27:53.627Z,25.40
2017-08-04T09:30:21.993Z,25.50
2017-08-04T09:32:50.341Z,25.50
2017-08-04T09:35:18.710Z,25.60
2017-08-04T09:37:47.062Z,25.70
2017-08-04T09:40:16.156Z,25.80
2017-08-04T09:42:44.524Z,25.70
2017-08-04T09:45:13.989Z,26.00
2017-08-04T09:47:42.343Z,25.90
2017-08-04T09:50:10.682Z,26.00
2017-08-04T09:52:39.280Z,25.80
2017-08-04T09:55:07.605Z,25.60
2017-08-04T09:57:35.926Z,25.50
2017-08-04T10:00:04.515Z,25.40
2017-08-04T10:02:32.959Z,25.30
2017-08-04T10:05:01.622Z,25.10
2017-08-04T10:07:30.689Z,25.10
2017-08-04T10:09:59.006Z,25.10
2017-08-04T10:12:27.485Z,25.30
2017-08-04T10:14:56.010Z,25.90
2017-08-04T10:17:24.341Z,26.40
2017-08-04T10:19:53.267Z,26.40
2017-08-04T10:22:22.463Z,26.60
2017-08-04T10:24:51.044Z,26.60
2017-08-04T10:27:19.342Z,26.40
2017-08-04T10:29:47.705Z,26.10
2017-08-04T10:32:16.086Z,25.90
2017-08-04T10:34:44.504Z,25.70
2017-08-04T10:37:13.627Z,25.40
2017-08-04T10:39:41.952Z,25.40
2017-08-04T10:42:10.267Z,25.30
2017-08-04T10:44:38.607Z,25.20
2017-08-04T10:47:06.927Z,25.10
2017-08-04T10:49:35.293Z,25.10
2017-08-04T10:52:03.590Z,24.90
2017-08-04T10:54:32.121Z,24.90
2017-08-04T10:57:00.460Z,25.10
2017-08-04T10:59:28.822Z,25.40
2017-08-04T11:01:57.916Z,25.80
2017-08-04T11:04:26.278Z,25.80
2017-08-04T11:06:54.639Z,25.80
2017-08-04T11:09:22.991Z,26.00
2017-08-04T11:11:51.433Z,26.20
2017-08-04T11:14:20.827Z,26.50
2017-08-04T11:16:49.163Z,26.50
2017-08-04T11:19:17.488Z,26.70
2017-08-04T11:21:45.805Z,26.80
2017-08-04T11:24:14.139Z,26.90
2017-08-04T11:26:43.242Z,27.00
2017-08-04T11:29:11.571Z,27.00
2017-08-04T11:31:39.920Z,27.00
2017-08-04T11:34:08.384Z,27.10
2017-08-04T11:36:36.704Z,27.20
2017-08-04T11:39:05.095Z,27.30
2017-08-04T11:41:33.451Z,27.40
2017-08-04T11:44:01.796Z,27.40
2017-08-04T11:46:30.170Z,27.30
2017-08-04T11:48:59.266Z,27.50
2017-08-04T11:51:27.611Z,27.40
2017-08-04T11:53:55.978Z,27.70
2017-08-04T11:56:24.535Z,27.80
2017-08-04T11:58:53.176Z,27.90
2017-08-04T12:01:21.729Z,27.90
2017-08-04T12:03:50.162Z,27.90
2017-08-04T12:06:19.290Z,27.80
2017-08-04T12:08:47.618Z,27.80
2017-08-04T12:11:15.960Z,27.70
2017-08-04T12:13:44.582Z,27.60
2017-08-04T12:16:12.897Z,27.60
2017-08-04T12:18:41.227Z,27.60
2017-08-04T12:21:11.031Z,27.60
2017-08-04T12:23:39.390Z,27.60
2017-08-04T12:26:07.729Z,27.60
2017-08-04T12:28:37.427Z,27.60
2017-08-04T12:31:05.762Z,27.60
2017-08-04T12:33:34.849Z,27.60
2017-08-04T12:36:03.303Z,27.50
2017-08-04T12:38:31.656Z,27.20
2017-08-04T12:41:00.090Z,27.30
2017-08-04T12:43:28.465Z,27.20
2017-08-04T12:45:56.830Z,27.40
2017-08-04T12:48:25.129Z,27.50
2017-08-04T12:50:54.360Z,27.50
2017-08-04T12:53:22.717Z,27.40
2017-08-04T12:55:51.350Z,27.40
2017-08-04T12:58:19.954Z,27.50
2017-08-04T13:00:48.274Z,27.50
2017-08-04T13:03:16.599Z,27.50
2017-08-04T13:05:44.976Z,27.50
2017-08-04T13:08:14.079Z,27.10
2017-08-04T13:10:42.469Z,27.10
2017-08-04T13:13:11.626Z,26.90
2017-08-04T13:18:10.449Z,26.80
2017-08-04T13:20:39.607Z,26.60
2017-08-04T13:23:08.721Z,26.50
2017-08-04T13:25:37.129Z,26.50
2017-08-04T13:28:05.502Z,26.50
2017-08-04T13:30:33.853Z,26.60
2017-08-04T13:33:02.500Z,26.60
2017-08-04T13:35:32.146Z,26.60
2017-08-04T13:38:01.377Z,26.60
2017-08-04T13:40:29.735Z,26.60
2017-08-04T13:42:58.826Z,26.50
2017-08-04T13:45:27.194Z,26.50
2017-08-04T13:47:55.520Z,26.40
2017-08-04T13:50:24.057Z,26.50
2017-08-04T13:52:52.409Z,26.60
2017-08-04T13:55:20.914Z,26.60
2017-08-04T13:57:50.091Z,26.60
2017-08-04T14:00:20.076Z,26.60
2017-08-04T14:02:49.166Z,26.50
2017-08-04T14:05:17.508Z,26.50
2017-08-04T14:07:45.821Z,26.50
2017-08-04T14:10:14.192Z,26.50
2017-08-04T14:12:42.511Z,26.50
2017-08-04T14:15:10.849Z,26.50
2017-08-04T14:17:39.173Z,26.50
2017-08-04T14:20:09.420Z,26.50
2017-08-04T14:22:37.718Z,26.40
2017-08-04T14:25:06.007Z,26.40
2017-08-04T14:27:34.324Z,26.30
2017-08-04T14:30:02.658Z,26.30
2017-08-04T14:32:30.957Z,26.20
2017-08-04T14:34:59.251Z,26.30
2017-08-04T14:37:27.595Z,26.30
2017-08-04T14:39:55.901Z,26.20
2017-08-04T14:42:24.199Z,26.10
2017-08-04T14:44:52.520Z,26.00
2017-08-04T14:47:21.633Z,26.00
2017-08-04T14:49:50.693Z,25.90
2017-08-04T14:52:18.977Z,25.90
2017-08-04T14:54:47.304Z,26.00
2017-08-04T14:57:15.590Z,26.00
2017-08-04T14:59:43.886Z,26.00
2017-08-04T15:02:12.200Z,26.00
2017-08-04T15:04:40.522Z,26.10
2017-08-04T15:07:08.810Z,26.10
2017-08-04T15:09:37.121Z,26.20
2017-08-04T15:12:05.438Z,26.20
2017-08-04T15:14:33.733Z,26.20
2017-08-04T15:17:02.057Z,26.10
2017-08-04T15:19:30.348Z,26.00
2017-08-04T15:21:59.799Z,25.90
2017-08-04T15:24:28.113Z,25.80
2017-08-04T15:26:56.406Z,25.90
2017-08-04T15:29:24.741Z,25.90
2017-08-04T15:31:53.037Z,26.00
2017-08-04T15:34:21.338Z,26.00
2017-08-04T15:36:49.689Z,26.00
2017-08-04T15:39:17.982Z,26.00
2017-08-04T15:41:47.059Z,26.10
2017-08-04T15:44:15.382Z,26.10
2017-08-04T15:46:43.710Z,26.10
2017-08-04T15:49:12.011Z,26.00
2017-08-04T15:51:40.301Z,25.90
2017-08-04T15:54:09.605Z,25.60
2017-08-04T15:56:38.672Z,25.60
2017-08-04T15:59:06.957Z,25.60
2017-08-04T16:01:36.041Z,25.70
2017-08-04T16:04:04.341Z,25.70
2017-08-04T16:06:32.662Z,25.70
2017-08-04T16:09:00.966Z,25.70
2017-08-04T16:11:29.294Z,25.70
2017-08-04T16:13:58.353Z,25.50
2017-08-04T16:16:28.525Z,25.50
2017-08-04T16:18:56.828Z,25.40
2017-08-04T16:21:25.133Z,25.40
2017-08-04T16:23:53.459Z,25.30
2017-08-04T16:26:21.780Z,25.40
2017-08-04T16:28:50.070Z,25.50
2017-08-04T16:31:20.746Z,25.40
2017-08-04T16:33:49.077Z,25.40
2017-08-04T16:36:17.418Z,25.40
2017-08-04T16:38:45.709Z,25.40
2017-08-04T16:41:14.001Z,25.30
2017-08-04T16:43:42.328Z,25.40
2017-08-04T16:46:10.626Z,25.40
2017-08-04T16:48:38.944Z,25.30
2017-08-04T16:51:07.235Z,25.40
2017-08-04T16:53:35.551Z,25.40
2017-08-04T16:56:03.894Z,25.20
2017-08-04T16:58:32.182Z,25.20
2017-08-04T17:01:00.509Z,25.10
2017-08-04T17:03:29.569Z,24.90
2017-08-04T17:05:57.871Z,24.90
2017-08-04T17:08:26.211Z,25.00
2017-08-04T17:10:54.507Z,24.90
2017-08-04T17:13:22.800Z,24.90
2017-08-04T17:15:51.120Z,25.00
2017-08-04T17:18:19.413Z,24.90
2017-08-04T17:20:47.768Z,24.90
2017-08-04T17:23:16.123Z,24.90
2017-08-04T17:25:44.412Z,24.90
2017-08-04T17:28:12.882Z,24.90
2017-08-04T17:30:41.174Z,24.90
2017-08-04T17:33:09.459Z,24.80
2017-08-04T17:35:37.780Z,24.80
2017-08-04T17:38:06.115Z,24.80
2017-08-04T17:40:35.185Z,24.80
2017-08-04T17:43:03.491Z,24.80
2017-08-04T17:45:31.821Z,24.70
2017-08-04T17:48:00.137Z,24.70
2017-08-04T17:50:28.440Z,24.70
2017-08-04T17:52:56.769Z,24.70
2017-08-04T17:55:25.824Z,24.50
2017-08-04T18:00:33.123Z,24.30
2017-08-04T18:03:10.177Z,24.30
2017-08-04T18:05:38.511Z,24.20
2017-08-04T18:08:06.890Z,24.10
2017-08-04T18:10:35.189Z,24.10
2017-08-04T18:13:03.496Z,24.00
2017-08-04T18:15:31.819Z,24.00
2017-08-04T18:18:00.112Z,23.90
2017-08-04T18:20:28.468Z,23.90
2017-08-04T18:22:57.549Z,23.80
2017-08-04T18:25:25.850Z,23.80
2017-08-04T18:27:54.170Z,23.80
2017-08-04T18:30:22.461Z,23.80
2017-08-04T18:32:50.780Z,23.70
2017-08-04T18:35:19.106Z,23.70
2017-08-04T18:37:47.497Z,23.50
2017-08-04T18:40:15.816Z,23.50
2017-08-04T18:42:49.967Z,23.40
2017-08-04T18:45:18.298Z,23.40
2017-08-04T18:47:46.609Z,23.30
2017-08-04T18:50:14.904Z,23.30
2017-08-04T18:52:43.222Z,23.30
2017-08-04T18:55:12.285Z,23.20
2017-08-04T18:57:40.610Z,23.20
2017-08-04T19:00:08.901Z,23.20
2017-08-04T19:02:37.196Z,23.20
2017-08-04T19:05:05.525Z,23.10
2017-08-04T19:07:33.824Z,23.10
2017-08-04T19:10:02.141Z,23.10
2017-08-04T19:12:30.434Z,23.00
2017-08-04T19:14:58.820Z,23.00
2017-08-04T19:17:27.118Z,22.90
2017-08-04T19:19:55.405Z,22.90
2017-08-04T19:22:23.726Z,22.80
2017-08-04T19:24:52.019Z,22.80
2017-08-04T19:27:20.409Z,22.70
2017-08-04T19:29:49.501Z,22.70
2017-08-04T19:32:17.787Z,22.70
2017-08-04T19:34:46.122Z,22.70
2017-08-04T19:37:14.412Z,22.70
2017-08-04T19:39:42.705Z,22.70
2017-08-04T19:42:11.030Z,22.60
2017-08-04T19:44:39.328Z,22.60
2017-08-04T19:47:07.658Z,22.50
2017-08-04T19:49:35.955Z,22.50
2017-08-04T19:52:05.046Z,22.40
2017-08-04T19:54:33.349Z,22.40
2017-08-04T19:57:01.650Z,22.40
2017-08-04T19:59:29.973Z,22.40
2017-08-04T20:01:58.266Z,22.40
2017-08-04T20:04:26.627Z,22.40
2017-08-04T20:06:55.685Z,22.40
2017-08-04T20:09:23.976Z,22.30
2017-08-04T20:11:52.288Z,22.40
2017-08-04T20:14:20.587Z,22.50
2017-08-04T20:16:48.910Z,22.50
2017-08-04T20:19:17.227Z,22.50
2017-08-04T20:21:45.564Z,22.60
2017-08-04T20:24:13.885Z,22.70
2017-08-04T20:26:42.177Z,22.70
2017-08-04T20:29:10.488Z,22.70
2017-08-04T20:31:38.824Z,22.60
2017-08-04T20:34:07.978Z,22.60
2017-08-04T20:36:36.271Z,22.60
2017-08-04T20:39:04.593Z,22.60
2017-08-04T20:41:32.884Z,22.60
2017-08-04T20:44:01.967Z,22.40
2017-08-04T20:46:30.255Z,22.40
2017-08-04T20:48:58.577Z,22.40
2017-08-04T20:51:26.885Z,22.20
2017-08-04T20:53:55.185Z,22.10
2017-08-04T20:56:24.283Z,22.20
2017-08-04T20:58:52.570Z,22.10
2017-08-04T21:01:20.889Z,22.10
2017-08-04T21:03:49.356Z,22.00
2017-08-04T21:06:17.650Z,21.90
2017-08-04T21:08:46.009Z,21.80
2017-08-04T21:11:14.336Z,21.80
2017-08-04T21:13:42.633Z,21.80
2017-08-04T21:16:10.924Z,21.70
2017-08-04T21:18:39.244Z,21.70
2017-08-04T21:21:07.581Z,21.70
2017-08-04T21:23:36.636Z,21.60
2017-08-04T21:26:04.928Z,21.60
2017-08-04T21:28:33.267Z,21.50
2017-08-04T21:31:02.501Z,21.50
2017-08-04T21:33:30.803Z,21.50
2017-08-04T21:35:59.117Z,21.50
2017-08-04T21:38:27.438Z,21.40
2017-08-04T21:40:55.768Z,21.40
2017-08-04T21:43:24.823Z,21.30
2017-08-04T21:45:53.138Z,21.30
2017-08-04T21:48:21.455Z,21.30
2017-08-04T21:50:49.773Z,21.20
2017-08-04T21:53:18.141Z,21.20
2017-08-04T21:55:46.455Z,21.10
2017-08-04T21:58:14.760Z,21.10
2017-08-04T22:00:43.076Z,21.10
2017-08-04T22:03:12.320Z,21.10
2017-08-04T22:08:45.971Z,21.00
2017-08-04T22:11:14.263Z,21.00
2017-08-04T22:13:42.661Z,21.00
2017-08-04T22:16:10.952Z,21.00
2017-08-04T22:18:39.254Z,21.00
2017-08-04T22:21:08.008Z,21.00
2017-08-04T22:23:36.336Z,21.00
2017-08-04T22:26:05.405Z,20.90
2017-08-04T22:28:33.680Z,20.90
2017-08-04T22:31:02.005Z,20.90
2017-08-04T22:33:30.295Z,20.80
2017-08-04T22:35:58.587Z,20.70
2017-08-04T22:38:26.896Z,20.70
2017-08-04T22:40:55.218Z,20.60
2017-08-04T22:43:23.551Z,20.60
2017-08-04T22:45:51.846Z,20.70
2017-08-04T22:48:20.134Z,20.80
2017-08-04T22:50:48.448Z,20.80
2017-08-04T22:53:16.739Z,20.70
2017-08-04T22:55:45.061Z,20.70
2017-08-04T22:58:14.123Z,20.60
2017-08-04T23:00:42.457Z,20.60
2017-08-04T23:03:10.750Z,20.60
2017-08-04T23:05:39.039Z,20.60
2017-08-04T23:08:07.355Z,20.60
2017-08-04T23:10:35.713Z,20.60
2017-08-04T23:13:04.768Z,20.60
2017-08-04T23:15:34.459Z,20.60
2017-08-04T23:18:02.770Z,20.70
2017-08-04T23:20:31.820Z,20.70
2017-08-04T23:23:00.144Z,20.70
2017-08-04T23:25:28.427Z,20.60
2017-08-04T23:27:56.753Z,20.70
2017-08-04T23:30:25.040Z,20.60
2017-08-04T23:32:53.335Z,20.60
2017-08-04T23:35:21.651Z,20.60
2017-08-04T23:37:49.936Z,20.60
2017-08-04T23:40:18.218Z,20.50
2017-08-04T23:42:47.310Z,20.40
2017-08-04T23:45:15.619Z,20.40
2017-08-04T23:47:43.918Z,20.40
2017-08-04T23:50:12.243Z,20.30
2017-08-04T23:52:40.539Z,20.20
2017-08-04T23:55:08.834Z,20.20
2017-08-04T23:57:37.151Z,20.10
